createdAt,value
2024-03-28T00:00:16.717Z,92.35
2024-03-28T00:01:42.308Z,93.31
2024-03-28T00:02:16.022Z,93.35
2024-03-28T00:02:49.306Z,93.05
2024-03-28T00:03:22.703Z,93.25
2024-03-28T00:03:56.089Z,93.91
2024-03-28T00:04:29.444Z,94.78
2024-03-28T00:05:19.642Z,95.00
2024-03-28T00:05:56.887Z,94.43
2024-03-28T00:06:30.178Z,94.36
2024-03-28T00:07:03.866Z,94.96
2024-03-28T00:07:37.997Z,94.86
2024-03-28T00:08:11.278Z,94.87
2024-03-28T00:09:04.431Z,94.41
2024-03-28T00:09:37.838Z,94.74
2024-03-28T00:10:11.597Z,94.62
2024-03-28T00:10:48.923Z,94.38
2024-03-28T00:11:21.979Z,94.81
2024-03-28T00:11:55.155Z,95.07
2024-03-28T00:12:45.288Z,95.03
2024-03-28T00:13:19.866Z,95.37
2024-03-28T00:13:53.753Z,95.84
2024-03-28T00:14:28.093Z,95.90
2024-03-28T00:15:01.739Z,96.04
2024-03-28T00:15:36.242Z,96.67
2024-03-28T00:16:27.084Z,95.91
2024-03-28T00:17:02.758Z,96.45
2024-03-28T00:17:36.286Z,96.83
2024-03-28T00:18:09.885Z,96.62
2024-03-28T00:18:43.311Z,96.62
2024-03-28T00:19:26.790Z,96.89
2024-03-28T00:20:13.842Z,97.20
2024-03-28T00:20:47.305Z,97.33
2024-03-28T00:21:20.779Z,96.44
2024-03-28T00:21:53.948Z,96.27
2024-03-28T00:22:27.140Z,95.80
2024-03-28T00:23:02.808Z,96.24
2024-03-28T00:23:55.316Z,96.91
2024-03-28T00:24:29.073Z,96.99
2024-03-28T00:25:02.220Z,97.05
2024-03-28T00:25:35.140Z,96.94
2024-03-28T00:26:10.045Z,97.66
2024-03-28T00:26:43.111Z,96.76
2024-03-28T00:27:32.691Z,97.39
2024-03-28T00:28:06.702Z,96.69
2024-03-28T00:28:40.134Z,96.63
2024-03-28T00:29:13.504Z,96.69
2024-03-28T00:29:47.165Z,96.68
2024-03-28T00:30:20.667Z,97.34
2024-03-28T00:31:10.740Z,97.03
2024-03-28T00:31:44.105Z,96.74
2024-03-28T00:32:17.612Z,95.82
2024-03-28T00:32:51.129Z,95.83
2024-03-28T00:33:24.757Z,95.97
2024-03-28T00:33:58.323Z,96.02
2024-03-28T00:34:47.863Z,96.63
2024-03-28T00:35:22.259Z,96.53
2024-03-28T00:35:56.158Z,95.96
2024-03-28T00:36:29.490Z,95.39
2024-03-28T00:37:02.896Z,94.66
2024-03-28T00:37:36.163Z,93.76
2024-03-28T00:38:33.447Z,94.29
2024-03-28T00:39:07.186Z,94.93
2024-03-28T00:39:40.280Z,95.45
2024-03-28T00:40:16.898Z,95.56
2024-03-28T00:40:52.384Z,94.12
2024-03-28T00:41:25.808Z,93.85
2024-03-28T00:42:12.647Z,94.35
2024-03-28T00:42:46.609Z,95.30
2024-03-28T00:43:22.081Z,95.33
2024-03-28T00:43:55.122Z,95.56
2024-03-28T00:44:28.356Z,95.83
2024-03-28T00:45:02.340Z,95.57
2024-03-28T00:45:54.254Z,95.61
2024-03-28T00:46:27.673Z,95.55
2024-03-28T00:47:00.882Z,95.64
2024-03-28T00:47:34.154Z,95.73
2024-03-28T00:48:07.550Z,95.77
2024-03-28T00:48:40.551Z,96.37
2024-03-28T00:49:35.363Z,96.03
2024-03-28T00:50:09.005Z,96.26
2024-03-28T00:50:42.131Z,96.15
2024-03-28T00:51:15.472Z,96.34
2024-03-28T00:51:48.723Z,96.76
2024-03-28T00:52:21.808Z,96.42
2024-03-28T00:53:18.607Z,96.30
2024-03-28T00:53:51.853Z,96.58
2024-03-28T00:54:24.798Z,96.12
2024-03-28T00:54:58.154Z,95.81
2024-03-28T00:55:31.780Z,95.96
2024-03-28T00:56:05.192Z,95.27
2024-03-28T00:56:53.891Z,95.03
2024-03-28T00:57:27.174Z,95.41
2024-03-28T00:58:00.582Z,95.37
2024-03-28T00:58:34.373Z,94.97
2024-03-28T00:59:07.693Z,95.00
2024-03-28T00:59:40.845Z,95.09
2024-03-28T01:00:34.587Z,94.45
2024-03-28T01:01:07.831Z,95.23
2024-03-28T01:01:41.005Z,95.46
2024-03-28T01:02:14.112Z,96.17
2024-03-28T01:02:47.825Z,95.83
2024-03-28T01:03:21.164Z,96.00
2024-03-28T01:04:16.791Z,96.43
2024-03-28T01:04:51.562Z,95.86
2024-03-28T01:05:24.595Z,95.64
2024-03-28T01:05:58.924Z,95.33
2024-03-28T01:06:32.340Z,95.02
2024-03-28T01:07:05.648Z,95.63
2024-03-28T01:07:54.080Z,95.78
2024-03-28T01:08:28.516Z,95.58
2024-03-28T01:09:01.950Z,95.66
2024-03-28T01:09:35.315Z,95.49
2024-03-28T01:10:09.112Z,95.32
2024-03-28T01:10:42.694Z,94.83
2024-03-28T01:11:36.231Z,95.65
2024-03-28T01:12:09.776Z,96.12
2024-03-28T01:12:43.363Z,96.00
2024-03-28T01:13:16.743Z,96.24
2024-03-28T01:13:50.116Z,96.76
2024-03-28T01:14:23.328Z,96.57
2024-03-28T01:15:18.932Z,96.09
2024-03-28T01:15:52.183Z,95.79
2024-03-28T01:16:25.795Z,95.66
2024-03-28T01:16:59.194Z,95.55
2024-03-28T01:17:32.741Z,95.44
2024-03-28T01:18:06.046Z,95.57
2024-03-28T01:18:54.750Z,95.33
2024-03-28T01:19:28.033Z,95.02
2024-03-28T01:20:01.193Z,95.72
2024-03-28T01:20:34.595Z,96.32
2024-03-28T01:21:08.180Z,96.12
2024-03-28T01:21:41.291Z,95.68
2024-03-28T01:22:34.992Z,95.05
2024-03-28T01:23:08.504Z,94.91
2024-03-28T01:23:41.999Z,94.87
2024-03-28T01:24:15.189Z,94.56
2024-03-28T01:24:48.670Z,93.98
2024-03-28T01:25:22.011Z,94.54
2024-03-28T01:26:15.894Z,94.93
2024-03-28T01:26:49.867Z,94.86
2024-03-28T01:27:23.779Z,94.65
2024-03-28T01:27:59.536Z,94.31
2024-03-28T01:28:34.219Z,94.43
2024-03-28T01:29:07.484Z,95.19
2024-03-28T01:29:57.817Z,95.54
2024-03-28T01:30:31.267Z,95.91
2024-03-28T01:31:05.465Z,95.65
2024-03-28T01:31:38.696Z,95.94
2024-03-28T01:32:12.251Z,96.10
2024-03-28T01:32:45.435Z,96.40
2024-03-28T01:33:38.783Z,96.78
2024-03-28T01:34:11.943Z,96.88
2024-03-28T01:34:45.159Z,96.28
2024-03-28T01:35:18.792Z,96.37
2024-03-28T01:35:52.337Z,96.25
2024-03-28T01:36:25.626Z,95.83
2024-03-28T01:37:19.363Z,95.34
2024-03-28T01:37:53.070Z,94.80
2024-03-28T01:38:26.121Z,95.46
2024-03-28T01:38:59.455Z,96.17
2024-03-28T01:39:32.890Z,96.52
2024-03-28T01:40:06.598Z,96.28
2024-03-28T01:41:00.432Z,95.46
2024-03-28T01:41:33.894Z,95.15
2024-03-28T01:42:07.399Z,94.56
2024-03-28T01:42:40.678Z,94.59
2024-03-28T01:43:14.065Z,95.07
2024-03-28T01:43:47.537Z,95.67
2024-03-28T01:44:37.944Z,94.65
2024-03-28T01:45:14.257Z,94.85
2024-03-28T01:45:48.242Z,94.97
2024-03-28T01:46:32.361Z,94.86
2024-03-28T01:47:35.351Z,94.49
2024-03-28T01:48:35.858Z,94.13
2024-03-28T01:49:10.823Z,93.69
2024-03-28T01:49:44.677Z,93.71
2024-03-28T01:50:18.276Z,93.89
2024-03-28T01:50:51.597Z,92.98
2024-03-28T01:51:25.827Z,92.72
2024-03-28T01:52:19.152Z,93.64
2024-03-28T01:52:53.328Z,93.26
2024-03-28T01:53:29.168Z,93.33
2024-03-28T01:54:06.189Z,93.27
2024-03-28T01:54:41.119Z,93.39
2024-03-28T01:55:14.886Z,94.08
2024-03-28T01:56:00.041Z,93.63
2024-03-28T01:56:35.473Z,94.29
2024-03-28T01:57:14.735Z,94.06
2024-03-28T01:57:49.145Z,93.86
2024-03-28T01:58:22.658Z,93.96
2024-03-28T01:58:55.877Z,93.78
2024-03-28T01:59:44.498Z,93.40
2024-03-28T02:00:19.865Z,93.12
2024-03-28T02:00:54.253Z,93.40
2024-03-28T02:01:28.296Z,93.09
2024-03-28T02:02:03.552Z,93.77
2024-03-28T02:02:38.880Z,94.29
2024-03-28T02:03:28.128Z,95.25
2024-03-28T02:04:01.429Z,95.07
2024-03-28T02:04:37.278Z,94.20
2024-03-28T02:05:11.408Z,93.61
2024-03-28T02:05:45.656Z,93.63
2024-03-28T02:06:19.139Z,93.59
2024-03-28T02:07:07.175Z,93.10
2024-03-28T02:07:40.766Z,93.98
2024-03-28T02:08:14.256Z,93.91
2024-03-28T02:08:48.886Z,94.48
2024-03-28T02:09:22.988Z,95.03
2024-03-28T02:09:56.215Z,94.05
2024-03-28T02:10:48.010Z,94.14
2024-03-28T02:11:21.585Z,94.40
2024-03-28T02:11:55.036Z,94.94
2024-03-28T02:12:28.757Z,95.29
2024-03-28T02:13:02.936Z,95.65
2024-03-28T02:13:36.547Z,95.46
2024-03-28T02:14:29.245Z,95.31
2024-03-28T02:15:03.094Z,94.07
2024-03-28T02:15:36.471Z,93.07
2024-03-28T02:16:09.784Z,93.13
2024-03-28T02:16:43.294Z,93.67
2024-03-28T02:17:16.432Z,93.78
2024-03-28T02:18:10.436Z,93.60
2024-03-28T02:18:44.033Z,93.68
2024-03-28T02:19:17.523Z,93.86
2024-03-28T02:19:50.998Z,93.86
2024-03-28T02:20:24.474Z,93.53
2024-03-28T02:20:58.713Z,93.43
2024-03-28T02:21:51.499Z,93.42
2024-03-28T02:22:25.055Z,93.75
2024-03-28T02:22:58.694Z,94.34
2024-03-28T02:23:32.572Z,94.37
2024-03-28T02:24:06.120Z,94.69
2024-03-28T02:24:42.319Z,95.19
2024-03-28T02:25:31.222Z,93.88
2024-03-28T02:26:05.420Z,93.73
2024-03-28T02:26:40.085Z,93.65
2024-03-28T02:27:13.649Z,93.51
2024-03-28T02:27:46.748Z,93.69
2024-03-28T02:28:20.172Z,93.71
2024-03-28T02:29:12.786Z,93.65
2024-03-28T02:29:46.543Z,92.93
2024-03-28T02:30:20.456Z,92.94
2024-03-28T02:30:53.634Z,92.70
2024-03-28T02:31:26.705Z,93.26
2024-03-28T02:32:00.135Z,93.44
2024-03-28T02:32:54.374Z,93.36
2024-03-28T02:33:28.190Z,93.44
2024-03-28T02:34:01.343Z,93.44
2024-03-28T02:34:34.615Z,93.95
2024-03-28T02:35:09.580Z,93.75
2024-03-28T02:35:43.118Z,93.34
2024-03-28T02:36:35.358Z,93.36
2024-03-28T02:37:09.043Z,94.25
2024-03-28T02:37:43.843Z,93.69
2024-03-28T02:38:23.707Z,93.32
2024-03-28T02:38:57.145Z,92.51
2024-03-28T02:39:30.673Z,93.25
2024-03-28T02:40:19.650Z,93.92
2024-03-28T02:40:53.191Z,94.12
2024-03-28T02:41:26.480Z,94.54
2024-03-28T02:41:59.901Z,94.37
2024-03-28T02:42:33.111Z,94.18
2024-03-28T02:43:06.493Z,94.81
2024-03-28T02:43:56.999Z,94.77
2024-03-28T02:44:30.716Z,94.78
2024-03-28T02:45:04.624Z,94.53
2024-03-28T02:45:40.376Z,93.85
2024-03-28T02:46:13.889Z,93.76
2024-03-28T02:46:47.072Z,93.63
2024-03-28T02:47:38.234Z,93.56
2024-03-28T02:48:11.698Z,93.54
2024-03-28T02:48:44.964Z,93.54
2024-03-28T02:49:18.147Z,93.88
2024-03-28T02:49:51.225Z,94.27
2024-03-28T02:50:24.333Z,94.56
2024-03-28T02:51:19.022Z,93.22
2024-03-28T02:51:52.192Z,93.09
2024-03-28T02:52:26.537Z,93.16
2024-03-28T02:52:59.725Z,92.54
2024-03-28T02:53:32.952Z,92.34
2024-03-28T02:54:06.176Z,92.38
2024-03-28T02:54:59.655Z,92.51
2024-03-28T02:55:33.318Z,92.66
2024-03-28T02:56:07.097Z,92.18
2024-03-28T02:56:40.315Z,92.57
2024-03-28T02:57:26.015Z,93.16
2024-03-28T02:57:59.433Z,93.90
2024-03-28T02:58:42.922Z,94.47
2024-03-28T02:59:16.230Z,93.57
2024-03-28T02:59:49.526Z,93.19
2024-03-28T03:00:22.822Z,93.60
2024-03-28T03:00:56.271Z,94.09
2024-03-28T03:01:29.658Z,94.16
2024-03-28T03:02:24.663Z,94.20
2024-03-28T03:03:00.423Z,93.84
2024-03-28T03:03:34.077Z,94.49
2024-03-28T03:04:08.785Z,94.87
2024-03-28T03:04:41.937Z,94.59
2024-03-28T03:05:15.233Z,94.72
2024-03-28T03:06:05.052Z,94.37
2024-03-28T03:06:38.454Z,93.96
2024-03-28T03:07:11.668Z,94.58
2024-03-28T03:07:44.957Z,94.26
2024-03-28T03:08:18.304Z,93.90
2024-03-28T03:08:51.732Z,94.04
2024-03-28T03:09:42.591Z,93.93
2024-03-28T03:10:16.500Z,93.90
2024-03-28T03:10:51.047Z,93.81
2024-03-28T03:12:47.219Z,93.57
2024-03-28T03:13:21.334Z,93.45
2024-03-28T03:14:09.622Z,93.71
2024-03-28T03:14:43.303Z,94.20
2024-03-28T03:15:16.612Z,93.87
2024-03-28T03:15:54.263Z,93.91
2024-03-28T03:16:27.566Z,93.71
2024-03-28T03:17:01.185Z,93.70
2024-03-28T03:17:49.575Z,93.48
2024-03-28T03:18:27.453Z,93.57
2024-03-28T03:19:04.024Z,92.92
2024-03-28T03:19:37.842Z,93.34
2024-03-28T03:20:15.061Z,93.69
2024-03-28T03:20:51.291Z,94.10
2024-03-28T03:21:34.749Z,93.91
2024-03-28T03:22:08.243Z,94.20
2024-03-28T03:22:49.918Z,94.54
2024-03-28T03:23:23.441Z,94.52
2024-03-28T03:24:02.175Z,94.53
2024-03-28T03:24:40.076Z,94.14
2024-03-28T03:25:27.775Z,94.01
2024-03-28T03:26:01.302Z,94.03
2024-03-28T03:26:36.495Z,94.46
2024-03-28T03:27:17.602Z,94.64
2024-03-28T03:28:11.071Z,94.47
2024-03-28T03:29:19.775Z,94.25
2024-03-28T03:30:11.193Z,94.50
2024-03-28T03:31:05.041Z,95.30
2024-03-28T03:31:56.571Z,95.79
2024-03-28T03:33:19.262Z,96.21
2024-03-28T03:34:11.056Z,95.54
2024-03-28T03:34:45.281Z,95.55
2024-03-28T03:35:22.142Z,95.44
2024-03-28T03:35:55.681Z,95.53
2024-03-28T03:36:41.036Z,95.58
2024-03-28T03:37:22.831Z,95.75
2024-03-28T03:37:56.027Z,95.96
2024-03-28T03:38:29.233Z,96.19
2024-03-28T03:39:04.058Z,95.66
2024-03-28T03:39:37.809Z,95.94
2024-03-28T03:40:30.038Z,96.22
2024-03-28T03:41:03.629Z,96.07
2024-03-28T03:41:36.747Z,96.01
2024-03-28T03:42:10.105Z,96.35
2024-03-28T03:42:43.204Z,96.45
2024-03-28T03:43:16.159Z,96.17
2024-03-28T03:44:10.791Z,96.23
2024-03-28T03:44:44.112Z,96.76
2024-03-28T03:45:17.495Z,97.19
2024-03-28T03:45:52.232Z,96.92
2024-03-28T03:46:26.733Z,96.83
2024-03-28T03:47:01.230Z,96.51
2024-03-28T03:47:51.226Z,96.40
2024-03-28T03:48:24.282Z,96.85
2024-03-28T03:48:57.358Z,97.24
2024-03-28T03:49:30.591Z,97.02
2024-03-28T03:50:04.082Z,96.52
2024-03-28T03:50:37.308Z,96.69
2024-03-28T03:51:31.474Z,96.80
2024-03-28T03:52:05.436Z,97.21
2024-03-28T03:52:38.652Z,97.39
2024-03-28T03:53:11.789Z,97.39
2024-03-28T03:53:44.999Z,97.29
2024-03-28T03:54:18.233Z,97.02
2024-03-28T03:55:12.734Z,97.11
2024-03-28T03:55:55.934Z,97.39
2024-03-28T03:56:29.814Z,97.96
2024-03-28T03:57:03.201Z,97.91
2024-03-28T03:57:36.537Z,97.62
2024-03-28T03:58:09.811Z,97.27
2024-03-28T03:59:04.090Z,97.29
2024-03-28T03:59:38.824Z,97.64
2024-03-28T04:00:13.265Z,97.12
2024-03-28T04:00:46.425Z,96.86
2024-03-28T04:01:19.706Z,96.96
2024-03-28T04:01:54.442Z,97.18
2024-03-28T04:02:41.396Z,96.93
2024-03-28T04:03:14.849Z,96.90
2024-03-28T04:03:48.034Z,97.11
2024-03-28T04:04:21.241Z,97.00
2024-03-28T04:04:54.578Z,96.94
2024-03-28T04:05:28.130Z,97.28
2024-03-28T04:06:23.365Z,97.08
2024-03-28T04:06:57.852Z,96.82
2024-03-28T04:07:31.188Z,96.93
2024-03-28T04:08:04.555Z,96.87
2024-03-28T04:08:38.281Z,96.55
2024-03-28T04:09:12.718Z,96.50
2024-03-28T04:09:59.863Z,97.08
2024-03-28T04:10:34.462Z,96.32
2024-03-28T04:11:08.243Z,96.10
2024-03-28T04:11:41.331Z,96.11
2024-03-28T04:12:14.536Z,95.92
2024-03-28T04:12:47.601Z,95.59
2024-03-28T04:13:42.235Z,95.17
2024-03-28T04:14:16.718Z,94.91
2024-03-28T04:14:50.188Z,95.49
2024-03-28T04:15:23.296Z,95.64
2024-03-28T04:15:56.688Z,95.68
2024-03-28T04:16:30.059Z,96.00
2024-03-28T04:17:19.662Z,96.34
2024-03-28T04:17:53.251Z,96.27
2024-03-28T04:18:26.596Z,95.95
2024-03-28T04:18:59.798Z,95.77
2024-03-28T04:19:32.984Z,95.98
2024-03-28T04:20:12.543Z,95.91
2024-03-28T04:21:05.301Z,95.66
2024-03-28T04:21:41.513Z,96.07
2024-03-28T04:22:17.578Z,95.75
2024-03-28T04:22:50.759Z,95.89
2024-03-28T04:23:25.044Z,96.14
2024-03-28T04:23:58.577Z,95.87
2024-03-28T04:24:40.107Z,95.53
2024-03-28T04:25:13.703Z,95.66
2024-03-28T04:25:55.069Z,95.56
2024-03-28T04:26:33.635Z,95.56
2024-03-28T04:27:07.255Z,95.49
2024-03-28T04:27:40.836Z,95.21
2024-03-28T04:28:29.093Z,95.48
2024-03-28T04:29:02.589Z,95.80
2024-03-28T04:29:38.368Z,95.63
2024-03-28T04:30:12.175Z,95.88
2024-03-28T04:30:45.329Z,95.81
2024-03-28T04:31:18.591Z,95.76
2024-03-28T04:32:07.696Z,95.11
2024-03-28T04:32:41.373Z,95.53
2024-03-28T04:33:15.190Z,95.00
2024-03-28T04:33:49.531Z,95.12
2024-03-28T04:34:24.700Z,95.18
2024-03-28T04:34:57.956Z,95.28
2024-03-28T04:35:47.815Z,95.02
2024-03-28T04:36:21.241Z,94.98
2024-03-28T04:36:54.595Z,95.31
2024-03-28T04:37:27.722Z,95.52
2024-03-28T04:38:00.922Z,95.11
2024-03-28T04:38:36.611Z,94.90
2024-03-28T04:39:23.414Z,95.13
2024-03-28T04:39:56.944Z,95.26
2024-03-28T04:40:31.180Z,94.65
2024-03-28T04:41:05.242Z,94.57
2024-03-28T04:41:38.569Z,93.52
2024-03-28T04:42:11.689Z,93.66
2024-03-28T04:43:02.795Z,93.41
2024-03-28T04:43:39.082Z,93.51
2024-03-28T04:44:12.605Z,93.17
2024-03-28T04:44:45.922Z,93.23
2024-03-28T04:45:19.678Z,93.07
2024-03-28T04:45:53.555Z,93.16
2024-03-28T04:46:47.612Z,93.93
2024-03-28T04:47:20.987Z,94.18
2024-03-28T04:47:54.395Z,93.87
2024-03-28T04:48:27.697Z,93.50
2024-03-28T04:49:01.104Z,93.17
2024-03-28T04:49:35.049Z,93.65
2024-03-28T04:50:22.804Z,93.68
2024-03-28T04:50:58.833Z,93.54
2024-03-28T04:51:34.441Z,93.51
2024-03-28T04:52:08.046Z,93.23
2024-03-28T04:52:41.539Z,93.43
2024-03-28T04:53:15.744Z,92.99
2024-03-28T04:54:07.190Z,93.36
2024-03-28T04:54:40.958Z,93.49
2024-03-28T04:55:14.926Z,93.67
2024-03-28T04:55:48.105Z,93.32
2024-03-28T04:56:21.253Z,93.34
2024-03-28T04:56:54.308Z,93.55
2024-03-28T04:57:49.322Z,93.63
2024-03-28T04:58:22.409Z,93.99
2024-03-28T04:58:55.838Z,94.46
2024-03-28T04:59:29.124Z,94.57
2024-03-28T05:00:02.445Z,94.53
2024-03-28T05:00:37.031Z,94.44
2024-03-28T05:01:26.388Z,93.69
2024-03-28T05:01:59.686Z,93.94
2024-03-28T05:02:33.691Z,94.33
2024-03-28T05:03:06.680Z,94.57
2024-03-28T05:03:39.871Z,94.77
2024-03-28T05:04:13.416Z,94.62
2024-03-28T05:05:07.631Z,94.55
2024-03-28T05:05:40.880Z,95.13
2024-03-28T05:06:14.697Z,95.36
2024-03-28T05:06:48.200Z,95.29
2024-03-28T05:07:22.847Z,95.33
2024-03-28T05:07:56.423Z,94.85
2024-03-28T05:08:48.903Z,94.51
2024-03-28T05:09:22.104Z,94.93
2024-03-28T05:09:55.214Z,94.84
2024-03-28T05:10:28.919Z,94.91
2024-03-28T05:11:02.167Z,94.78
2024-03-28T05:11:35.451Z,94.61
2024-03-28T05:12:25.963Z,94.12
2024-03-28T05:12:59.197Z,94.42
2024-03-28T05:13:32.564Z,94.34
2024-03-28T05:14:05.917Z,94.29
2024-03-28T05:14:39.224Z,94.56
2024-03-28T05:15:12.810Z,94.52
2024-03-28T05:16:08.922Z,94.36
2024-03-28T05:16:43.644Z,94.66
2024-03-28T05:17:17.019Z,94.64
2024-03-28T05:17:50.660Z,94.94
2024-03-28T05:18:24.566Z,94.93
2024-03-28T05:18:57.915Z,95.04
2024-03-28T05:19:46.067Z,95.10
2024-03-28T05:20:19.662Z,95.51
2024-03-28T05:20:52.899Z,95.68
2024-03-28T05:21:26.007Z,95.56
2024-03-28T05:21:59.337Z,95.68
2024-03-28T05:22:33.448Z,95.86
2024-03-28T05:23:27.572Z,95.98
2024-03-28T05:24:01.074Z,96.11
2024-03-28T05:24:35.079Z,96.26
2024-03-28T05:25:08.182Z,96.02
2024-03-28T05:25:41.498Z,95.98
2024-03-28T05:26:16.015Z,95.89
2024-03-28T05:27:05.780Z,95.86
2024-03-28T05:27:39.277Z,96.08
2024-03-28T05:28:12.795Z,96.19
2024-03-28T05:28:45.778Z,96.17
2024-03-28T05:29:19.013Z,96.24
2024-03-28T05:29:52.276Z,96.33
2024-03-28T05:30:42.727Z,96.21
2024-03-28T05:31:18.640Z,96.12
2024-03-28T05:31:51.924Z,95.79
2024-03-28T05:32:25.319Z,95.63
2024-03-28T05:32:58.537Z,95.78
2024-03-28T05:33:31.674Z,95.93
2024-03-28T05:34:26.429Z,96.05
2024-03-28T05:35:00.257Z,96.16
2024-03-28T05:35:34.106Z,96.24
2024-03-28T05:36:07.788Z,96.18
2024-03-28T05:36:41.677Z,95.65
2024-03-28T05:37:14.898Z,95.53
2024-03-28T05:38:04.323Z,95.65
2024-03-28T05:38:38.181Z,95.78
2024-03-28T05:39:12.260Z,95.72
2024-03-28T05:39:45.581Z,95.29
2024-03-28T05:40:19.135Z,95.15
2024-03-28T05:40:52.771Z,95.28
2024-03-28T05:41:42.471Z,94.65
2024-03-28T05:42:15.669Z,94.58
2024-03-28T05:42:49.055Z,94.06
2024-03-28T05:43:22.449Z,94.08
2024-03-28T05:43:55.872Z,94.44
2024-03-28T05:44:29.088Z,94.55
2024-03-28T05:45:19.536Z,94.69
2024-03-28T05:45:53.016Z,94.20
2024-03-28T05:46:26.685Z,93.72
2024-03-28T05:47:00.031Z,93.55
2024-03-28T05:47:33.450Z,93.30
2024-03-28T05:48:07.281Z,93.18
2024-03-28T05:49:00.234Z,93.03
2024-03-28T05:49:33.529Z,93.05
2024-03-28T05:50:07.356Z,91.84
2024-03-28T05:50:40.726Z,91.05
2024-03-28T05:51:19.238Z,91.12
2024-03-28T05:51:53.552Z,91.69
2024-03-28T05:52:40.895Z,91.31
2024-03-28T05:53:15.415Z,91.24
2024-03-28T05:53:51.912Z,91.34
2024-03-28T05:54:25.221Z,90.97
2024-03-28T05:54:58.579Z,90.96
2024-03-28T05:55:32.031Z,91.35
2024-03-28T05:56:23.757Z,91.02
2024-03-28T05:56:57.980Z,91.56
2024-03-28T05:57:31.110Z,91.81
2024-03-28T05:58:04.557Z,92.34
2024-03-28T05:58:38.061Z,91.83
2024-03-28T05:59:11.324Z,92.22
2024-03-28T06:00:00.657Z,91.53
2024-03-28T06:00:34.092Z,91.15
2024-03-28T06:01:07.780Z,89.85
2024-03-28T06:01:41.052Z,89.15
2024-03-28T06:02:14.369Z,89.37
2024-03-28T06:02:47.801Z,89.59
2024-03-28T06:03:41.781Z,88.75
2024-03-28T06:04:15.312Z,89.08
2024-03-28T06:04:48.630Z,89.03
2024-03-28T06:05:22.165Z,89.39
2024-03-28T06:05:55.688Z,89.72
2024-03-28T06:06:28.977Z,90.10
2024-03-28T06:07:22.446Z,89.56
2024-03-28T06:07:56.513Z,88.99
2024-03-28T06:08:30.001Z,88.41
2024-03-28T06:09:03.566Z,88.38
2024-03-28T06:09:36.626Z,87.90
2024-03-28T06:10:10.576Z,87.16
2024-03-28T06:11:05.339Z,87.69
2024-03-28T06:11:38.915Z,87.63
2024-03-28T06:12:12.757Z,86.86
2024-03-28T06:12:45.885Z,86.51
2024-03-28T06:13:19.357Z,86.03
2024-03-28T06:14:07.083Z,85.66
2024-03-28T06:14:50.304Z,86.05
2024-03-28T06:15:23.588Z,86.59
2024-03-28T06:15:56.779Z,86.99
2024-03-28T06:16:32.684Z,87.43
2024-03-28T06:17:05.995Z,87.69
2024-03-28T06:17:39.350Z,87.90
2024-03-28T06:18:31.500Z,87.78
2024-03-28T06:19:05.358Z,88.14
2024-03-28T06:19:38.954Z,88.35
2024-03-28T06:20:12.537Z,88.14
2024-03-28T06:20:45.918Z,87.88
2024-03-28T06:21:19.402Z,87.03
2024-03-28T06:22:08.784Z,86.06
2024-03-28T06:22:42.343Z,86.09
2024-03-28T06:23:15.640Z,85.86
2024-03-28T06:23:49.247Z,85.48
2024-03-28T06:24:23.374Z,85.32
2024-03-28T06:24:57.156Z,86.21
2024-03-28T06:25:49.659Z,85.91
2024-03-28T06:26:24.154Z,85.32
2024-03-28T06:26:57.600Z,84.94
2024-03-28T06:27:33.862Z,85.23
2024-03-28T06:28:09.473Z,84.59
2024-03-28T06:28:42.743Z,85.15
2024-03-28T06:29:30.684Z,84.83
2024-03-28T06:30:04.495Z,84.72
2024-03-28T06:30:42.066Z,85.82
2024-03-28T06:31:18.778Z,86.23
2024-03-28T06:31:53.477Z,85.49
2024-03-28T06:32:26.768Z,84.92
2024-03-28T06:33:09.802Z,84.83
2024-03-28T06:33:44.381Z,83.26
2024-03-28T06:34:17.722Z,83.64
2024-03-28T06:34:55.571Z,83.90
2024-03-28T06:35:28.931Z,84.21
2024-03-28T06:36:06.233Z,83.96
2024-03-28T06:36:55.597Z,84.44
2024-03-28T06:37:29.109Z,85.09
2024-03-28T06:38:02.839Z,85.56
2024-03-28T06:38:36.161Z,84.47
2024-03-28T06:39:10.466Z,84.20
2024-03-28T06:39:45.472Z,83.78
2024-03-28T06:40:31.526Z,83.93
2024-03-28T06:41:05.236Z,84.39
2024-03-28T06:41:38.591Z,84.45
2024-03-28T06:42:12.198Z,84.18
2024-03-28T06:42:45.415Z,84.09
2024-03-28T06:43:18.756Z,83.59
2024-03-28T06:44:13.260Z,83.26
2024-03-28T06:44:48.801Z,83.75
2024-03-28T06:45:22.187Z,84.01
2024-03-28T06:45:55.238Z,84.30
2024-03-28T06:46:29.221Z,84.15
2024-03-28T06:47:03.382Z,84.08
2024-03-28T06:47:50.841Z,84.26
2024-03-28T06:48:25.378Z,84.63
2024-03-28T06:48:58.920Z,83.70
2024-03-28T06:49:32.302Z,84.11
2024-03-28T06:50:06.001Z,84.37
2024-03-28T06:50:40.133Z,83.75
2024-03-28T06:51:28.689Z,84.54
2024-03-28T06:52:02.120Z,84.85
2024-03-28T06:52:35.550Z,85.01
2024-03-28T06:53:09.730Z,85.35
2024-03-28T06:53:43.122Z,85.78
2024-03-28T06:54:16.477Z,85.55
2024-03-28T06:55:06.214Z,83.91
2024-03-28T06:55:39.655Z,82.99
2024-03-28T06:56:13.110Z,83.23
2024-03-28T06:56:46.602Z,82.53
2024-03-28T06:57:19.880Z,81.35
2024-03-28T06:57:53.282Z,81.25
2024-03-28T06:58:47.179Z,82.21
2024-03-28T06:59:21.110Z,82.48
2024-03-28T06:59:54.436Z,82.37
2024-03-28T07:00:28.384Z,81.53
2024-03-28T07:01:05.229Z,82.27
2024-03-28T07:01:39.099Z,83.06
2024-03-28T07:02:24.835Z,81.68
2024-03-28T07:02:58.719Z,80.93
2024-03-28T07:03:31.900Z,81.64
2024-03-28T07:04:05.299Z,81.82
2024-03-28T07:04:38.795Z,81.78
2024-03-28T07:05:12.002Z,81.47
2024-03-28T07:06:13.413Z,81.37
2024-03-28T07:06:50.691Z,81.06
2024-03-28T07:07:24.167Z,80.39
2024-03-28T07:07:57.926Z,81.19
2024-03-28T07:08:31.215Z,81.04
2024-03-28T07:09:04.781Z,79.69
2024-03-28T07:09:48.018Z,79.89
2024-03-28T07:10:22.978Z,79.78
2024-03-28T07:10:56.618Z,78.38
2024-03-28T07:11:30.643Z,79.25
2024-03-28T07:12:04.133Z,79.29
2024-03-28T07:12:38.931Z,80.20
2024-03-28T07:13:33.541Z,79.59
2024-03-28T07:14:09.046Z,80.33
2024-03-28T07:14:42.643Z,81.44
2024-03-28T07:15:15.991Z,82.10
2024-03-28T07:15:49.487Z,81.59
2024-03-28T07:16:23.071Z,81.70
2024-03-28T07:17:11.785Z,80.07
2024-03-28T07:17:45.846Z,79.63
2024-03-28T07:18:19.184Z,80.03
2024-03-28T07:18:55.262Z,79.94
2024-03-28T07:19:28.768Z,78.26
2024-03-28T07:20:02.421Z,77.95
2024-03-28T07:20:50.886Z,78.48
2024-03-28T07:21:24.826Z,79.42
2024-03-28T07:21:58.123Z,78.58
2024-03-28T07:22:32.303Z,77.06
2024-03-28T07:23:05.511Z,77.45
2024-03-28T07:23:42.436Z,76.05
2024-03-28T07:24:32.168Z,76.74
2024-03-28T07:25:06.211Z,76.23
2024-03-28T07:25:39.459Z,75.86
2024-03-28T07:26:12.614Z,75.34
2024-03-28T07:26:45.784Z,75.47
2024-03-28T07:27:19.436Z,75.92
2024-03-28T07:28:15.063Z,76.55
2024-03-28T07:28:49.180Z,74.70
2024-03-28T07:29:22.800Z,74.99
2024-03-28T07:29:56.480Z,74.78
2024-03-28T07:30:30.307Z,75.68
2024-03-28T07:31:04.247Z,76.12
2024-03-28T07:31:52.072Z,74.71
2024-03-28T07:32:25.956Z,74.60
2024-03-28T07:32:59.654Z,74.28
2024-03-28T07:33:33.246Z,72.97
2024-03-28T07:34:07.029Z,72.42
2024-03-28T07:34:42.326Z,73.43
2024-03-28T07:35:52.103Z,71.81
2024-03-28T07:36:25.477Z,72.28
2024-03-28T07:36:59.035Z,71.74
2024-03-28T07:37:33.380Z,71.91
2024-03-28T07:38:06.861Z,71.81
2024-03-28T07:39:13.017Z,70.45
2024-03-28T07:39:46.738Z,71.17
2024-03-28T07:40:20.296Z,71.53
2024-03-28T07:40:53.863Z,72.54
2024-03-28T07:41:26.956Z,73.37
2024-03-28T07:42:00.690Z,71.64
2024-03-28T07:42:49.749Z,72.02
2024-03-28T07:43:23.513Z,71.19
2024-03-28T07:43:56.791Z,70.15
2024-03-28T07:44:30.484Z,70.70
2024-03-28T07:45:04.473Z,70.18
2024-03-28T07:45:37.929Z,70.80
2024-03-28T07:46:27.334Z,69.32
2024-03-28T07:47:01.003Z,70.02
2024-03-28T07:47:34.658Z,69.82
2024-03-28T07:48:08.705Z,68.11
2024-03-28T07:48:42.236Z,68.63
2024-03-28T07:49:15.427Z,67.84
2024-03-28T07:50:26.731Z,67.31
2024-03-28T07:51:01.366Z,66.99
2024-03-28T07:51:34.544Z,67.71
2024-03-28T07:52:07.461Z,68.42
2024-03-28T07:52:40.744Z,69.44
2024-03-28T07:53:46.496Z,68.53
2024-03-28T07:54:19.870Z,69.03
2024-03-28T07:54:53.565Z,68.53
2024-03-28T07:55:27.084Z,68.56
2024-03-28T07:56:01.194Z,69.28
2024-03-28T07:56:35.133Z,69.25
2024-03-28T07:57:27.626Z,69.41
2024-03-28T07:58:02.717Z,70.72
2024-03-28T07:58:37.248Z,71.43
2024-03-28T07:59:12.082Z,71.22
2024-03-28T07:59:47.533Z,67.89
2024-03-28T08:00:24.028Z,66.19